createdAt,value
2018-07-30T00:51:21.862Z,21.35
2018-07-30T00:53:51.547Z,21.42
2018-07-30T00:56:22.091Z,21.02
2018-07-30T00:58:51.783Z,21.11
2018-07-30T01:30:59.266Z,20.69
2018-07-30T01:33:29.059Z,20.85
2018-07-30T01:35:58.523Z,20.89
2018-07-30T01:38:28.231Z,20.90
2018-07-30T01:40:57.749Z,20.98
2018-07-30T01:43:27.094Z,21.00
2018-07-30T01:45:56.355Z,21.13
2018-07-30T01:48:25.875Z,21.25
2018-07-30T01:50:55.366Z,21.17
2018-07-30T01:53:24.647Z,21.12
2018-07-30T01:55:54.206Z,21.28
2018-07-30T01:58:23.934Z,21.23
2018-07-30T02:00:53.141Z,21.25
2018-07-30T02:03:22.559Z,21.13
2018-07-30T02:05:52.248Z,21.12
2018-07-30T02:08:21.692Z,20.96
2018-07-30T02:10:51.376Z,21.01
2018-07-30T02:13:20.898Z,20.97
2018-07-30T14:28:55.775Z,33.51
2018-07-30T14:31:25.051Z,33.58
2018-07-30T14:33:55.398Z,33.27
2018-07-30T14:36:25.160Z,33.31
2018-07-30T14:38:54.556Z,33.10
2018-07-30T14:41:23.878Z,33.16
2018-07-30T14:43:54.230Z,33.14
2018-07-30T14:46:24.472Z,32.93
2018-07-30T14:48:53.706Z,32.95
2018-07-30T14:51:23.122Z,32.95
2018-07-30T14:53:52.623Z,32.75
2018-07-30T14:56:22.238Z,32.67
2018-07-30T14:58:51.646Z,32.92
2018-07-30T15:01:21.142Z,32.93
2018-07-30T15:03:50.416Z,32.90
2018-07-30T15:06:19.758Z,33.12
2018-07-30T15:08:49.235Z,33.03
2018-07-30T15:11:18.755Z,33.01
2018-07-30T15:13:48.509Z,33.20
2018-07-30T15:16:18.999Z,33.28
2018-07-30T15:18:48.954Z,33.45
2018-07-30T15:21:18.444Z,33.28
2018-07-30T15:23:47.911Z,33.16
2018-07-30T15:26:17.478Z,33.13
2018-07-30T15:28:46.715Z,33.26
2018-07-30T15:31:16.242Z,33.15
2018-07-30T15:33:45.463Z,33.08
2018-07-30T15:36:15.242Z,32.86
2018-07-30T15:38:44.712Z,32.82
2018-07-30T15:41:15.478Z,32.86
2018-07-30T15:43:45.141Z,32.81
2018-07-30T15:46:16.089Z,32.87
2018-07-30T15:48:45.786Z,32.88
2018-07-30T15:51:16.556Z,33.19
2018-07-30T15:53:46.487Z,33.20
2018-07-30T15:56:16.440Z,33.33
2018-07-30T15:58:46.302Z,33.37
2018-07-30T16:01:16.220Z,33.51
2018-07-30T16:03:45.728Z,33.46
2018-07-30T16:06:15.741Z,33.37
2018-07-30T16:08:45.917Z,33.37
2018-07-30T16:11:15.684Z,33.22
2018-07-30T16:13:45.544Z,33.14
2018-07-30T16:16:16.102Z,33.04
2018-07-30T16:18:45.721Z,33.11
2018-07-30T16:21:15.385Z,33.09
2018-07-30T16:23:45.123Z,33.16
2018-07-30T16:26:14.799Z,33.20
2018-07-30T16:28:44.262Z,33.13
2018-07-30T16:31:14.220Z,33.09
2018-07-30T16:33:43.702Z,33.14
2018-07-30T16:36:14.077Z,33.30
2018-07-30T16:38:43.721Z,33.46
2018-07-30T16:41:13.270Z,33.73
2018-07-30T16:43:42.783Z,33.44
2018-07-30T16:46:12.283Z,33.58
2018-07-30T16:48:41.787Z,33.72
2018-07-30T16:51:11.241Z,33.55
2018-07-30T16:56:16.053Z,33.61
2018-07-30T16:58:45.508Z,33.39
2018-07-30T17:01:15.131Z,33.47
2018-07-30T17:03:44.541Z,33.42
2018-07-30T17:06:14.039Z,33.36
2018-07-30T17:08:43.571Z,33.39
2018-07-30T17:11:13.316Z,33.42
2018-07-30T17:13:42.514Z,33.16
2018-07-30T17:16:12.054Z,33.09
2018-07-30T17:18:41.539Z,33.10
2018-07-30T17:21:10.983Z,32.93
2018-07-30T17:23:40.338Z,33.00
2018-07-30T17:26:09.829Z,33.05
2018-07-30T17:28:39.729Z,32.92
2018-07-30T17:31:09.832Z,32.85
2018-07-30T17:33:39.236Z,32.94
2018-07-30T17:36:08.731Z,32.92
2018-07-30T17:38:37.923Z,32.84
2018-07-30T17:41:07.736Z,32.62
2018-07-30T17:43:37.018Z,32.54
2018-07-30T17:46:06.934Z,32.62
2018-07-30T17:48:37.123Z,32.71
2018-07-30T17:51:07.299Z,32.63
2018-07-30T17:53:36.622Z,32.59
2018-07-30T17:56:06.922Z,32.63
2018-07-30T17:58:36.274Z,32.50
2018-07-30T18:01:05.911Z,32.47
2018-07-30T18:03:35.526Z,32.35
2018-07-30T18:06:04.970Z,32.31
2018-07-30T18:08:34.717Z,32.28
2018-07-30T18:11:04.210Z,32.27
2018-07-30T18:13:33.716Z,32.23
2018-07-30T18:16:03.208Z,32.24
2018-07-30T18:18:32.709Z,32.09
2018-07-30T18:21:02.228Z,32.05
2018-07-30T18:23:31.927Z,31.96
2018-07-30T18:26:01.448Z,31.96
2018-07-30T18:28:31.566Z,31.88
2018-07-30T18:31:01.411Z,31.77
2018-07-30T18:33:30.803Z,31.57
2018-07-30T18:36:00.347Z,31.49
2018-07-30T18:38:29.835Z,31.45
2018-07-30T18:40:59.258Z,31.42
2018-07-30T18:43:28.783Z,31.37
2018-07-30T18:45:58.755Z,31.29
2018-07-30T18:48:28.002Z,31.27
2018-07-30T18:50:57.718Z,31.17
2018-07-30T18:53:27.637Z,31.06
2018-07-30T18:55:57.331Z,30.88
2018-07-30T18:58:27.042Z,30.77
2018-07-30T19:00:56.529Z,30.70
2018-07-30T19:03:26.404Z,30.62
2018-07-30T19:05:55.605Z,30.70
2018-07-30T19:08:25.775Z,30.25
2018-07-30T19:10:55.287Z,30.10
2018-07-30T19:13:24.690Z,30.04
2018-07-30T19:15:54.662Z,30.03
2018-07-30T19:18:24.644Z,29.95
2018-07-30T19:20:54.246Z,29.80
2018-07-30T19:23:24.099Z,29.68
2018-07-30T19:25:53.761Z,29.67
2018-07-30T19:28:23.170Z,29.43
2018-07-30T19:30:52.635Z,29.30
2018-07-30T19:33:22.035Z,29.23
2018-07-30T19:35:51.485Z,28.99
2018-07-30T19:38:21.541Z,28.91
2018-07-30T19:40:50.896Z,28.77
2018-07-30T19:43:20.402Z,28.44
2018-07-30T19:45:50.421Z,28.48
2018-07-30T19:48:20.050Z,28.29
2018-07-30T19:50:49.485Z,28.40
2018-07-30T19:53:19.605Z,28.12
2018-07-30T19:55:48.802Z,27.87
2018-07-30T19:58:18.943Z,27.80
2018-07-30T20:00:48.330Z,27.74
2018-07-30T20:03:17.839Z,27.74
2018-07-30T20:05:47.350Z,27.70
2018-07-30T20:08:17.458Z,27.83
2018-07-30T20:10:47.540Z,27.97
2018-07-30T20:13:17.473Z,27.82
2018-07-30T20:15:46.808Z,27.50
2018-07-30T20:18:16.578Z,27.39
2018-07-30T20:20:46.035Z,27.39
2018-07-30T20:23:17.172Z,27.43
2018-07-30T20:25:46.670Z,27.44
2018-07-30T20:28:16.752Z,27.45
2018-07-30T20:30:47.082Z,27.35
2018-07-30T20:33:16.990Z,27.22
2018-07-30T20:35:46.731Z,27.28
2018-07-30T20:38:15.947Z,27.15
2018-07-30T20:40:45.371Z,27.19
2018-07-30T20:43:14.575Z,27.13
2018-07-30T20:45:43.872Z,27.12
2018-07-30T20:48:13.083Z,27.06
2018-07-30T20:50:42.343Z,26.99
2018-07-30T20:53:11.528Z,26.85
2018-07-30T20:55:40.734Z,26.81
2018-07-30T20:58:09.987Z,26.82
2018-07-30T21:00:39.154Z,26.72
2018-07-30T21:03:08.408Z,26.57
2018-07-30T21:05:43.303Z,26.60
2018-07-30T21:08:14.551Z,26.54
2018-07-30T21:10:45.103Z,26.47
2018-07-30T21:13:15.506Z,26.35
2018-07-30T21:15:44.964Z,26.48
2018-07-30T21:18:14.192Z,26.41
2018-07-30T21:20:43.382Z,26.46
2018-07-30T21:23:12.648Z,26.40
2018-07-30T21:25:41.819Z,26.26
2018-07-30T21:28:11.098Z,26.09
2018-07-30T21:30:40.563Z,25.82
2018-07-30T21:33:09.998Z,25.65
2018-07-30T21:35:39.245Z,25.59
2018-07-30T21:38:08.449Z,25.63
2018-07-30T21:40:37.636Z,25.61
2018-07-30T21:43:06.878Z,25.63
2018-07-30T21:45:36.030Z,25.60
2018-07-30T21:48:05.250Z,25.47
2018-07-30T21:50:34.518Z,25.39
2018-07-30T21:53:03.733Z,25.44
2018-07-30T21:55:32.969Z,25.45
2018-07-30T21:58:02.191Z,25.25
2018-07-30T22:00:31.459Z,25.25
2018-07-30T22:03:00.707Z,25.25
2018-07-30T22:05:29.895Z,25.27
2018-07-30T22:07:59.155Z,25.24
2018-07-30T22:10:28.354Z,25.19
2018-07-30T22:12:57.614Z,25.09
2018-07-30T22:15:26.851Z,24.90
2018-07-30T22:17:56.127Z,24.89
2018-07-30T22:20:25.652Z,24.81
2018-07-30T22:22:55.199Z,24.88
2018-07-30T22:25:24.690Z,24.92
2018-07-30T22:27:54.351Z,24.71
2018-07-30T22:30:23.862Z,24.72
2018-07-30T22:32:53.660Z,24.51
2018-07-30T22:35:23.059Z,24.37
2018-07-30T22:37:52.284Z,24.43
2018-07-30T22:40:21.559Z,24.48
2018-07-30T22:42:50.786Z,24.49
2018-07-30T22:45:20.012Z,24.60
2018-07-30T22:47:49.261Z,24.56
2018-07-30T22:50:18.507Z,24.34
2018-07-30T22:52:47.674Z,24.33
2018-07-30T22:55:16.974Z,24.36
2018-07-30T22:57:46.611Z,24.27
2018-07-30T23:00:15.850Z,24.19
2018-07-30T23:02:45.105Z,24.19
2018-07-30T23:05:14.319Z,24.29
2018-07-30T23:07:43.583Z,23.96
2018-07-30T23:10:12.786Z,23.97
2018-07-30T23:12:42.781Z,23.72
2018-07-30T23:15:11.966Z,23.52
2018-07-30T23:17:41.270Z,23.62
2018-07-30T23:20:10.475Z,23.77
2018-07-30T23:22:39.667Z,23.84
2018-07-30T23:25:08.869Z,23.71
2018-07-30T23:27:38.076Z,23.63
2018-07-30T23:30:07.862Z,23.61
2018-07-30T23:32:37.014Z,23.69
2018-07-30T23:35:06.394Z,23.54
2018-07-30T23:37:35.620Z,23.44
2018-07-30T23:40:05.745Z,23.60
2018-07-30T23:42:35.014Z,23.36
2018-07-30T23:45:04.274Z,23.46
2018-07-30T23:47:33.487Z,23.40
2018-07-30T23:50:02.712Z,23.12
2018-07-30T23:52:31.982Z,23.24
2018-07-30T23:55:01.217Z,23.15
2018-07-30T23:57:30.374Z,23.01
2018-07-30T23:59:59.579Z,22.95
